Strona główna
METAR-TAF:

METAR-TAF

Lotnisko :

Port lotniczy Marka

Amman, Jordania

Szerokość geograficzna: 31-59N, Długość geograficzna: 035-59E, wysokość: 767 m

Aktualna obserwacja pogody

Raport powstał 1 godzina i 10 minut temu, godzina 03:00 UTC
Cisza
Temperatura 8°C
Wilgotność 93%
Ciśnienie 1017 hPa
Widzialność: 4000 m
zamglenie

METAR: OJAM 110300Z 00000KT 4000 BR NSC 08/07 Q1017 NOSIG

czas: 06:10 (04:10 UTC)

Prognoza

Raport powstał 5 godziny i 13 minut temu, godzina 22:57 UTC
Prognoza ważna od 11 godzina 00 UTC do 12 godzina 06 UTC
Wiatr 1 kt z kierunków zmiennych
Widzialność: 4000 m
zamglenie
Prawdopodobieństwo 30%
od 11 godzina 02 UTC do 11 godzina 06 UTC
Widzialność: 2000 m
Rozproszone chmury na wysokości 2000 ft
Stopniowe zmiany
od 11 godzina 06 UTC do 11 godzina 08 UTC
Wiatr 8 kt od wschodnio-południowy wschód
Widzialność: 5000 m
Rozproszone chmury na wysokości 3000 ft
zmętnienie

TAF: OJAM 102257Z 1100/1206 VRB01KT 4000 BR NSC PROB30 1102/1106 2000 SCT020 BECMG 1106/1108 12008KT 5000 HZ SCT030

Obserwacja i prognoza pogody dla ponad 4000 lotnisk (raport METAR i TAF).

Dostępne stacje oznaczono żółtymi i czerwonymi punktami na mapie.

Najedź kursorem aby zobaczyć nazwę stacji.

Kliknij aby zobaczyć obserwacje i prognozy pogody.

Aby zmienić mapę: kliknij na zielony przycisk z czarnym krzyżykiem, aby powiększyć; na zielony przycisk z myślnikiem, aby pomniejszyć; na zielone strzałki, aby przejść do map sąsiednich.


METAR-TAF: